createdAt,value
2023-01-20T00:01:33.753Z,-5.80
2023-01-20T00:04:01.016Z,-5.80
2023-01-20T00:06:29.706Z,-5.90
2023-01-20T00:08:59.659Z,-5.90
2023-01-20T00:11:28.050Z,-5.90
2023-01-20T00:13:57.133Z,-5.90
2023-01-20T00:16:25.157Z,-5.90
2023-01-20T00:18:52.790Z,-5.90
2023-01-20T00:21:20.504Z,-5.90
2023-01-20T00:23:48.380Z,-5.80
2023-01-20T00:26:20.183Z,-5.80
2023-01-20T00:28:48.360Z,-5.80
2023-01-20T00:31:30.566Z,-5.80
2023-01-20T00:34:00.248Z,-5.80
2023-01-20T00:36:31.558Z,-5.80
2023-01-20T00:39:00.684Z,-5.80
2023-01-20T00:41:27.973Z,-5.90
2023-01-20T00:43:55.273Z,-5.90
2023-01-20T00:46:23.321Z,-5.90
2023-01-20T00:48:50.506Z,-5.90
2023-01-20T00:51:17.754Z,-5.90
2023-01-20T00:53:44.968Z,-6.00
2023-01-20T00:56:12.166Z,-5.90
2023-01-20T00:58:39.474Z,-5.90
2023-01-20T01:01:06.747Z,-5.90
2023-01-20T01:03:33.920Z,-5.90
2023-01-20T01:06:12.575Z,-5.90
2023-01-20T01:08:39.836Z,-6.00
2023-01-20T01:11:07.835Z,-6.00
2023-01-20T01:13:35.525Z,-6.10
2023-01-20T01:16:02.858Z,-6.10
2023-01-20T01:18:30.081Z,-6.20
2023-01-20T01:20:57.468Z,-6.20
2023-01-20T01:23:24.634Z,-6.30
2023-01-20T01:25:52.103Z,-6.20
2023-01-20T01:28:19.245Z,-6.20
2023-01-20T01:30:46.620Z,-6.20
2023-01-20T01:33:13.749Z,-6.20
2023-01-20T01:35:40.899Z,-6.30
2023-01-20T01:38:08.100Z,-6.20
2023-01-20T01:40:35.693Z,-6.30
2023-01-20T01:43:02.869Z,-6.30
2023-01-20T01:45:30.966Z,-6.30
2023-01-20T01:48:01.278Z,-6.30
2023-01-20T01:50:42.959Z,-6.30
2023-01-20T01:53:10.692Z,-6.20
2023-01-20T01:55:42.295Z,-6.20
2023-01-20T01:58:13.081Z,-6.20
2023-01-20T02:00:40.575Z,-6.30
2023-01-20T02:03:08.310Z,-6.20
2023-01-20T02:05:37.329Z,-6.30
2023-01-20T02:08:05.466Z,-6.30
2023-01-20T02:10:32.650Z,-6.20
2023-01-20T02:13:01.185Z,-6.30
2023-01-20T02:15:39.371Z,-6.20
2023-01-20T02:18:12.216Z,-6.20
2023-01-20T02:20:54.491Z,-6.30
2023-01-20T02:24:00.876Z,-6.30
2023-01-20T02:26:51.907Z,-6.30
2023-01-20T02:29:37.259Z,-6.30
2023-01-20T02:32:09.627Z,-6.30
2023-01-20T02:34:43.834Z,-6.40
2023-01-20T02:37:40.983Z,-6.40
2023-01-20T02:40:31.341Z,-6.50
2023-01-20T02:43:26.538Z,-6.60
2023-01-20T02:46:33.601Z,-6.50
2023-01-20T02:49:18.010Z,-6.50
2023-01-20T02:51:54.205Z,-6.60
2023-01-20T02:54:23.136Z,-6.60
2023-01-20T02:56:53.494Z,-6.60
2023-01-20T02:59:26.396Z,-6.60
2023-01-20T03:02:21.087Z,-6.60
2023-01-20T03:04:53.137Z,-6.60
2023-01-20T03:07:24.605Z,-6.60
2023-01-20T03:09:56.004Z,-6.60
2023-01-20T03:12:33.531Z,-6.60
2023-01-20T03:15:01.423Z,-6.60
2023-01-20T03:17:28.808Z,-6.70
2023-01-20T03:19:56.204Z,-6.70
2023-01-20T03:22:23.495Z,-6.70
2023-01-20T03:24:51.769Z,-6.80
2023-01-20T03:27:19.065Z,-6.70
2023-01-20T03:29:46.244Z,-6.70
2023-01-20T03:32:14.600Z,-6.60
2023-01-20T03:34:43.692Z,-6.60
2023-01-20T03:37:13.991Z,-6.70
2023-01-20T03:39:41.442Z,-6.70
2023-01-20T03:42:31.163Z,-6.70
2023-01-20T03:45:09.542Z,-6.80
2023-01-20T03:47:50.823Z,-6.80
2023-01-20T03:50:33.527Z,-6.90
2023-01-20T03:53:30.459Z,-6.90
2023-01-20T03:56:28.294Z,-6.90
2023-01-20T03:58:58.010Z,-6.90
2023-01-20T04:01:35.042Z,-6.80
2023-01-20T04:04:04.387Z,-6.80
2023-01-20T04:06:33.827Z,-6.80
2023-01-20T04:09:39.542Z,-6.70
2023-01-20T04:12:07.030Z,-6.70
2023-01-20T04:14:36.033Z,-6.70
2023-01-20T04:17:04.745Z,-6.70
2023-01-20T04:19:32.335Z,-6.70
2023-01-20T04:22:12.684Z,-6.80
2023-01-20T04:24:51.760Z,-6.70
2023-01-20T04:27:19.000Z,-6.80
2023-01-20T04:29:46.924Z,-6.70
2023-01-20T04:32:14.525Z,-6.80
2023-01-20T04:34:41.640Z,-6.80
2023-01-20T04:37:08.886Z,-6.80
2023-01-20T04:39:36.092Z,-6.90
2023-01-20T04:42:04.326Z,-7.00
2023-01-20T04:44:31.582Z,-6.90
2023-01-20T04:46:59.317Z,-6.90
2023-01-20T04:49:26.516Z,-6.90
2023-01-20T04:51:53.706Z,-7.00
2023-01-20T04:54:20.844Z,-7.10
2023-01-20T04:56:51.290Z,-7.00
2023-01-20T04:59:18.492Z,-7.00
2023-01-20T05:01:45.953Z,-7.00
2023-01-20T05:04:13.173Z,-7.00
2023-01-20T05:06:42.864Z,-6.90
2023-01-20T05:09:16.896Z,-7.00
2023-01-20T05:11:44.618Z,-7.00
2023-01-20T05:14:14.596Z,-7.00
2023-01-20T05:16:41.779Z,-6.90
2023-01-20T05:19:10.981Z,-6.90
2023-01-20T05:21:38.282Z,-6.90
2023-01-20T05:24:05.794Z,-6.90
2023-01-20T05:26:33.314Z,-6.90
2023-01-20T05:29:00.720Z,-6.90
2023-01-20T05:31:27.864Z,-7.00
2023-01-20T05:33:55.121Z,-7.00
2023-01-20T05:36:22.383Z,-7.00
2023-01-20T05:38:49.706Z,-6.90
2023-01-20T05:41:16.915Z,-6.90
2023-01-20T05:43:44.195Z,-6.90
2023-01-20T05:46:11.484Z,-6.90
2023-01-20T05:48:38.693Z,-6.90
2023-01-20T05:51:06.003Z,-6.90
2023-01-20T05:53:33.210Z,-6.90
2023-01-20T05:56:01.945Z,-6.90
2023-01-20T05:58:29.961Z,-6.90
2023-01-20T06:01:05.827Z,-6.80
2023-01-20T06:03:33.130Z,-6.80
2023-01-20T06:06:01.907Z,-6.90
2023-01-20T06:08:29.683Z,-7.00
2023-01-20T06:10:56.822Z,-7.00
2023-01-20T06:13:23.895Z,-7.10
2023-01-20T06:15:55.420Z,-7.10
2023-01-20T06:18:23.413Z,-7.10
2023-01-20T06:20:50.769Z,-7.10
2023-01-20T06:23:18.782Z,-7.10
2023-01-20T06:25:46.059Z,-7.10
2023-01-20T06:28:13.193Z,-7.10
2023-01-20T06:30:43.373Z,-7.10
2023-01-20T06:33:10.956Z,-7.20
2023-01-20T06:35:38.394Z,-7.20
2023-01-20T06:38:05.692Z,-7.10
2023-01-20T06:40:32.959Z,-7.10
2023-01-20T06:43:00.122Z,-7.00
2023-01-20T06:45:27.613Z,-6.90
2023-01-20T06:47:54.862Z,-6.90
2023-01-20T06:50:22.032Z,-6.90
2023-01-20T06:52:49.246Z,-6.80
2023-01-20T06:55:16.756Z,-6.70
2023-01-20T06:57:44.301Z,-6.70
2023-01-20T07:00:12.117Z,-6.80
2023-01-20T07:02:39.323Z,-6.70
2023-01-20T07:05:08.247Z,-6.70
2023-01-20T07:07:35.577Z,-6.70
2023-01-20T07:10:03.953Z,-6.70
2023-01-20T07:12:31.075Z,-6.70
2023-01-20T07:14:58.208Z,-6.70
2023-01-20T07:17:25.299Z,-6.80
2023-01-20T07:19:52.456Z,-6.90
2023-01-20T07:22:19.627Z,-6.90
2023-01-20T07:24:46.985Z,-6.90
2023-01-20T07:27:15.601Z,-6.80
2023-01-20T07:29:42.946Z,-6.70
2023-01-20T07:32:10.295Z,-6.60
2023-01-20T07:34:37.464Z,-6.50
2023-01-20T07:37:04.641Z,-6.40
2023-01-20T07:39:32.139Z,-6.40
2023-01-20T07:41:59.571Z,-6.30
2023-01-20T07:44:26.862Z,-6.20
2023-01-20T07:46:54.563Z,-6.20
2023-01-20T07:49:21.903Z,-6.10
2023-01-20T07:51:49.155Z,-6.00
2023-01-20T07:54:16.289Z,-5.90
2023-01-20T07:56:43.433Z,-5.90
2023-01-20T07:59:11.105Z,-5.90
2023-01-20T08:01:38.326Z,-5.90
2023-01-20T08:04:05.522Z,-5.80
2023-01-20T08:06:32.773Z,-5.70
2023-01-20T08:09:01.680Z,-5.60
2023-01-20T08:11:29.676Z,-5.50
2023-01-20T08:13:56.789Z,-5.50
2023-01-20T08:16:24.002Z,-5.30
2023-01-20T08:18:54.148Z,-5.10
2023-01-20T08:21:27.237Z,-5.00
2023-01-20T08:23:59.033Z,-4.80
2023-01-20T08:26:29.744Z,-4.80
2023-01-20T08:29:02.718Z,-4.60
2023-01-20T08:31:30.117Z,-4.60
2023-01-20T08:33:57.781Z,-4.60
2023-01-20T08:36:28.466Z,-4.50
2023-01-20T08:38:57.751Z,-4.50
2023-01-20T08:41:30.625Z,-4.40
2023-01-20T08:43:59.892Z,-4.40
2023-01-20T08:46:27.705Z,-4.30
2023-01-20T08:48:56.245Z,-4.20
2023-01-20T08:51:27.276Z,-4.10
2023-01-20T08:53:54.486Z,-4.00
2023-01-20T08:56:22.150Z,-4.00
2023-01-20T08:58:49.899Z,-3.90
2023-01-20T09:01:20.311Z,-3.70
2023-01-20T09:04:03.859Z,-3.60
2023-01-20T09:06:43.739Z,-3.50
2023-01-20T09:09:11.506Z,-3.50
2023-01-20T09:11:40.010Z,-3.40
2023-01-20T09:14:07.364Z,-3.40
2023-01-20T09:16:34.511Z,-3.30
2023-01-20T09:19:03.229Z,-3.30
2023-01-20T09:21:30.520Z,-3.30
2023-01-20T09:23:57.719Z,-3.30
2023-01-20T09:26:35.295Z,-3.20
2023-01-20T09:29:09.797Z,-3.10
2023-01-20T09:31:40.192Z,-3.10
2023-01-20T09:34:08.240Z,-2.90
2023-01-20T09:36:35.493Z,-2.90
2023-01-20T09:39:21.110Z,-2.80
2023-01-20T09:42:08.044Z,-2.60
2023-01-20T09:44:54.042Z,-2.50
2023-01-20T09:47:36.186Z,-2.50
2023-01-20T09:50:30.218Z,-2.40
2023-01-20T09:53:15.684Z,-2.30
2023-01-20T09:55:55.030Z,-2.20
2023-01-20T09:58:41.002Z,-2.20
2023-01-20T10:01:31.092Z,-2.00
2023-01-20T10:04:24.033Z,-2.00
2023-01-20T10:07:13.135Z,-1.90
2023-01-20T10:10:09.784Z,-1.80
2023-01-20T10:12:43.268Z,-1.70
2023-01-20T10:15:16.067Z,-1.70
2023-01-20T10:17:50.832Z,-1.70
2023-01-20T10:20:40.796Z,-1.60
2023-01-20T10:23:11.249Z,-1.50
2023-01-20T10:25:50.382Z,-1.30
2023-01-20T10:28:44.463Z,-1.40
2023-01-20T10:31:18.086Z,-1.50
2023-01-20T10:33:45.882Z,-1.40
2023-01-20T10:36:21.536Z,-1.40
2023-01-20T10:38:52.820Z,-1.20
2023-01-20T10:41:28.508Z,-1.30
2023-01-20T10:43:56.877Z,-1.20
2023-01-20T10:46:42.522Z,-1.20
2023-01-20T10:49:31.035Z,-1.20
2023-01-20T10:52:08.844Z,-1.20
2023-01-20T10:54:37.180Z,-1.10
2023-01-20T10:57:07.805Z,-1.10
2023-01-20T10:59:42.398Z,-1.00
2023-01-20T11:02:28.591Z,-0.90
2023-01-20T11:05:02.246Z,-0.80
2023-01-20T11:07:32.844Z,-0.60
2023-01-20T11:10:13.791Z,-0.50
2023-01-20T11:12:42.891Z,-0.50
2023-01-20T11:15:31.405Z,-0.40
2023-01-20T11:18:16.980Z,-0.40
2023-01-20T11:20:50.212Z,-0.40
2023-01-20T11:23:34.776Z,-0.30
2023-01-20T11:26:28.403Z,-0.20
2023-01-20T11:29:00.110Z,-0.20
2023-01-20T11:31:48.309Z,-0.20
2023-01-20T11:34:26.715Z,-0.30
2023-01-20T11:37:05.825Z,-0.30
2023-01-20T11:39:34.111Z,-0.40
2023-01-20T11:42:15.542Z,-0.40
2023-01-20T11:44:47.729Z,-0.40
2023-01-20T11:47:27.662Z,-0.50
2023-01-20T11:50:25.533Z,-0.40
2023-01-20T11:52:52.962Z,-0.40
2023-01-20T11:55:24.560Z,-0.20
2023-01-20T11:58:01.217Z,-0.10
2023-01-20T12:00:30.066Z,0.20
2023-01-20T12:03:03.348Z,0.30
2023-01-20T12:05:55.228Z,0.40
2023-01-20T12:08:35.042Z,0.60
2023-01-20T12:11:07.553Z,0.60
2023-01-20T12:14:22.760Z,0.50
2023-01-20T12:17:03.575Z,0.40
2023-01-20T12:19:54.263Z,0.40
2023-01-20T12:22:53.445Z,0.40
2023-01-20T12:25:30.958Z,0.50
2023-01-20T12:28:19.848Z,0.50
2023-01-20T12:31:00.916Z,0.40
2023-01-20T12:33:34.156Z,0.30
2023-01-20T12:36:31.277Z,0.20
2023-01-20T12:39:35.305Z,0.10
2023-01-20T12:42:14.295Z,-0.10
2023-01-20T12:45:01.373Z,-0.20
2023-01-20T12:47:40.617Z,-0.30
2023-01-20T12:50:32.912Z,-0.30
2023-01-20T12:53:23.023Z,-0.30
2023-01-20T12:56:12.488Z,-0.10
2023-01-20T12:59:11.243Z,-0.20
2023-01-20T13:01:38.520Z,-0.10
2023-01-20T13:04:26.297Z,0.00
2023-01-20T13:07:02.426Z,-0.10
2023-01-20T13:09:49.983Z,-0.10
2023-01-20T13:12:37.755Z,-0.10
2023-01-20T13:15:10.782Z,-0.20
2023-01-20T13:18:13.444Z,-0.20
2023-01-20T13:20:45.706Z,-0.20
2023-01-20T13:23:21.026Z,-0.10
2023-01-20T13:25:49.105Z,-0.10
2023-01-20T13:28:27.984Z,-0.20
2023-01-20T13:31:00.070Z,-0.20
2023-01-20T13:33:35.350Z,-0.20
2023-01-20T13:36:14.724Z,-0.20
2023-01-20T13:38:43.043Z,-0.10
2023-01-20T13:41:11.529Z,-0.10
2023-01-20T13:43:44.813Z,0.00
2023-01-20T13:46:11.983Z,0.20
2023-01-20T13:49:04.139Z,0.20
2023-01-20T13:51:37.412Z,0.30
2023-01-20T13:54:24.143Z,0.20
2023-01-20T13:56:52.744Z,0.10
2023-01-20T13:59:20.105Z,0.10
2023-01-20T14:01:47.288Z,0.20
2023-01-20T14:04:20.639Z,0.30
2023-01-20T14:06:50.445Z,0.40
2023-01-20T14:09:26.236Z,0.40
2023-01-20T14:11:57.820Z,0.30
2023-01-20T14:14:26.904Z,0.30
2023-01-20T14:16:55.958Z,0.20
2023-01-20T14:19:35.224Z,0.30
2023-01-20T14:22:16.767Z,0.40
2023-01-20T14:24:45.689Z,0.30
2023-01-20T14:27:20.283Z,0.40
2023-01-20T14:29:49.912Z,0.50
2023-01-20T14:32:34.363Z,0.50
2023-01-20T14:35:04.700Z,0.50
2023-01-20T14:37:37.714Z,0.40
2023-01-20T14:40:28.787Z,0.50
2023-01-20T14:43:01.394Z,0.50
2023-01-20T14:45:32.153Z,0.50
2023-01-20T14:48:02.153Z,0.50
2023-01-20T14:50:29.849Z,0.60
2023-01-20T14:52:57.270Z,0.60
2023-01-20T14:55:31.736Z,0.60
2023-01-20T14:57:59.423Z,0.40
2023-01-20T15:00:34.321Z,0.50
2023-01-20T15:03:24.083Z,0.30
2023-01-20T15:05:59.165Z,0.40
2023-01-20T15:08:33.655Z,0.40
2023-01-20T15:11:18.932Z,0.20
2023-01-20T15:13:53.178Z,0.40
2023-01-20T15:16:29.982Z,0.30
2023-01-20T15:19:15.581Z,0.20
2023-01-20T15:21:56.569Z,0.20
2023-01-20T15:24:34.752Z,0.20
2023-01-20T15:27:04.223Z,0.30
2023-01-20T15:29:34.229Z,0.10
2023-01-20T15:32:13.120Z,0.10
2023-01-20T15:34:40.362Z,0.20
2023-01-20T15:37:18.556Z,0.30
2023-01-20T15:39:45.911Z,0.40
2023-01-20T15:42:15.329Z,0.30
2023-01-20T15:44:42.507Z,0.20
2023-01-20T15:47:31.172Z,0.30
2023-01-20T15:49:58.871Z,0.40
2023-01-20T15:52:26.494Z,0.50
2023-01-20T15:54:54.014Z,0.50
2023-01-20T15:57:21.105Z,0.50
2023-01-20T15:59:49.883Z,0.50
2023-01-20T16:02:23.896Z,0.50
2023-01-20T16:04:51.269Z,0.50
2023-01-20T16:07:20.152Z,0.30
2023-01-20T16:09:47.617Z,0.50
2023-01-20T16:12:17.257Z,0.40
2023-01-20T16:14:44.713Z,0.30
2023-01-20T16:17:21.161Z,0.40
2023-01-20T16:19:51.819Z,0.40
2023-01-20T16:22:18.998Z,0.30
2023-01-20T16:24:49.095Z,0.40
2023-01-20T16:27:22.132Z,0.30
2023-01-20T16:29:49.936Z,0.20
2023-01-20T16:32:18.788Z,0.10
2023-01-20T16:34:47.523Z,0.20
2023-01-20T16:37:15.116Z,0.20
2023-01-20T16:39:42.335Z,0.10
2023-01-20T16:42:14.581Z,0.30
2023-01-20T16:44:41.939Z,0.40
2023-01-20T16:47:09.155Z,0.40
2023-01-20T16:49:36.405Z,0.50
2023-01-20T16:52:05.157Z,0.50
2023-01-20T16:54:32.274Z,0.40
2023-01-20T16:57:00.615Z,0.40
2023-01-20T16:59:27.800Z,0.40
2023-01-20T17:02:03.917Z,0.30
2023-01-20T17:04:31.642Z,0.20
2023-01-20T17:06:58.916Z,0.10
2023-01-20T17:09:26.224Z,0.10
2023-01-20T17:11:53.408Z,0.10
2023-01-20T17:14:20.673Z,0.20
2023-01-20T17:16:48.305Z,0.30
2023-01-20T17:19:17.674Z,0.30
2023-01-20T17:21:45.182Z,0.20
2023-01-20T17:24:12.808Z,-0.10
2023-01-20T17:26:40.158Z,-0.10
2023-01-20T17:29:08.695Z,-0.10
2023-01-20T17:31:37.190Z,-0.10
2023-01-20T17:34:05.897Z,0.00
2023-01-20T17:36:34.982Z,0.00
2023-01-20T17:39:04.137Z,-0.10
2023-01-20T17:41:32.294Z,-0.30
2023-01-20T17:43:59.610Z,-0.40
2023-01-20T17:46:29.887Z,-0.50
2023-01-20T17:48:58.785Z,-0.60
2023-01-20T17:51:28.328Z,-0.70
2023-01-20T17:53:57.015Z,-0.80
2023-01-20T17:56:24.541Z,-0.70
2023-01-20T17:58:51.869Z,-0.70
2023-01-20T18:01:22.384Z,-0.80
2023-01-20T18:03:52.690Z,-0.90
2023-01-20T18:06:23.014Z,-1.10
2023-01-20T18:08:58.886Z,-1.10
2023-01-20T18:11:29.091Z,-1.00
2023-01-20T18:13:58.469Z,-1.00
2023-01-20T18:16:32.392Z,-0.90
2023-01-20T18:18:59.790Z,-0.80
2023-01-20T18:21:32.924Z,-0.70
2023-01-20T18:24:01.316Z,-0.60
2023-01-20T18:26:30.677Z,-0.50
2023-01-20T18:29:00.152Z,-0.50
2023-01-20T18:31:29.692Z,-0.40
2023-01-20T18:33:59.838Z,-0.40
2023-01-20T18:36:29.870Z,-0.30
2023-01-20T18:38:59.795Z,-0.40
2023-01-20T18:41:31.050Z,-0.40
2023-01-20T18:44:00.058Z,-0.30
2023-01-20T18:46:30.202Z,-0.40
2023-01-20T18:48:57.915Z,-0.40
2023-01-20T18:51:28.265Z,-0.40
2023-01-20T18:54:08.267Z,-0.40
2023-01-20T18:56:37.895Z,-0.40
2023-01-20T18:59:08.044Z,-0.50
2023-01-20T19:01:39.814Z,-0.30
2023-01-20T19:04:12.396Z,-0.20
2023-01-20T19:06:45.600Z,-0.20
2023-01-20T19:09:19.027Z,-0.10
2023-01-20T19:11:47.771Z,-0.10
2023-01-20T19:14:15.678Z,0.00
2023-01-20T19:16:45.605Z,0.00
2023-01-20T19:19:13.883Z,-0.10
2023-01-20T19:21:42.683Z,-0.10
2023-01-20T19:24:21.646Z,0.00
2023-01-20T19:26:52.038Z,0.10
2023-01-20T19:29:26.088Z,0.00
2023-01-20T19:32:00.031Z,0.10
2023-01-20T19:34:28.790Z,0.10
2023-01-20T19:36:57.634Z,-0.10
2023-01-20T19:39:27.474Z,-0.30
2023-01-20T19:41:58.631Z,-0.40
2023-01-20T19:44:28.067Z,-0.30
2023-01-20T19:47:00.761Z,-0.30
2023-01-20T19:49:33.195Z,-0.30
2023-01-20T19:52:02.308Z,-0.30
2023-01-20T19:54:31.580Z,-0.20
2023-01-20T19:57:00.219Z,-0.20
2023-01-20T19:59:32.791Z,-0.20
2023-01-20T20:02:00.893Z,-0.20
2023-01-20T20:04:28.242Z,-0.10
2023-01-20T20:07:01.938Z,-0.30
2023-01-20T20:09:30.917Z,-0.40
2023-01-20T20:12:05.364Z,-0.40
2023-01-20T20:14:34.279Z,-0.30
2023-01-20T20:17:02.140Z,-0.30
2023-01-20T20:19:30.450Z,-0.20
2023-01-20T20:21:59.824Z,-0.20
2023-01-20T20:24:28.218Z,-0.10
2023-01-20T20:26:59.323Z,0.00
2023-01-20T20:29:30.264Z,0.00
2023-01-20T20:32:02.835Z,-0.10
2023-01-20T20:34:32.926Z,-0.10
2023-01-20T20:37:03.609Z,0.00
2023-01-20T20:39:32.923Z,0.10
2023-01-20T20:42:00.883Z,0.10
2023-01-20T20:44:28.223Z,0.10
2023-01-20T20:46:55.543Z,0.10
2023-01-20T20:49:23.116Z,0.20
2023-01-20T20:51:50.499Z,0.20
2023-01-20T20:54:18.041Z,0.20
2023-01-20T20:56:46.082Z,0.20
2023-01-20T20:59:22.760Z,0.20
2023-01-20T21:01:54.696Z,0.20
2023-01-20T21:04:22.778Z,0.20
2023-01-20T21:06:50.498Z,0.10
2023-01-20T21:09:17.959Z,0.20
2023-01-20T21:11:45.263Z,0.20
2023-01-20T21:14:12.585Z,0.20
2023-01-20T21:16:40.216Z,0.20
2023-01-20T21:19:09.264Z,0.30
2023-01-20T21:21:37.911Z,0.30
2023-01-20T21:24:10.141Z,0.20
2023-01-20T21:26:37.443Z,0.00
2023-01-20T21:29:04.973Z,0.00
2023-01-20T21:31:34.454Z,0.00
2023-01-20T21:34:01.829Z,0.10
2023-01-20T21:36:30.626Z,0.10
2023-01-20T21:38:59.797Z,0.20
2023-01-20T21:41:27.060Z,0.10
2023-01-20T21:44:12.761Z,0.00
2023-01-20T21:46:40.910Z,0.10
2023-01-20T21:49:27.454Z,0.10
2023-01-20T21:52:14.586Z,-0.10
2023-01-20T21:54:42.347Z,0.10
2023-01-20T21:57:09.704Z,0.10
2023-01-20T21:59:37.470Z,0.00
2023-01-20T22:02:04.798Z,0.10
2023-01-20T22:04:33.097Z,0.00
2023-01-20T22:07:00.685Z,0.00
2023-01-20T22:09:27.978Z,-0.10
2023-01-20T22:11:55.888Z,-0.10
2023-01-20T22:14:23.276Z,0.00
2023-01-20T22:16:50.623Z,-0.10
2023-01-20T22:19:17.935Z,-0.20
2023-01-20T22:21:45.195Z,-0.20
2023-01-20T22:24:12.386Z,-0.10
2023-01-20T22:26:40.095Z,0.00
2023-01-20T22:29:07.309Z,0.10
2023-01-20T22:31:34.624Z,0.20
2023-01-20T22:34:06.726Z,0.20
2023-01-20T22:36:34.318Z,0.20
2023-01-20T22:39:02.933Z,0.10
2023-01-20T22:41:30.601Z,0.20
2023-01-20T22:43:58.359Z,0.10
2023-01-20T22:46:28.845Z,0.20
2023-01-20T22:48:59.656Z,0.20
2023-01-20T22:51:28.946Z,0.30
2023-01-20T22:53:58.778Z,0.30
2023-01-20T22:56:28.281Z,0.30
2023-01-20T22:58:59.583Z,0.20
2023-01-20T23:01:29.781Z,0.10
2023-01-20T23:04:03.002Z,0.20
2023-01-20T23:06:33.244Z,0.10
2023-01-20T23:09:03.101Z,0.10
2023-01-20T23:11:31.179Z,0.10
2023-01-20T23:13:58.485Z,0.10
2023-01-20T23:16:26.695Z,0.10
2023-01-20T23:18:54.026Z,0.10
2023-01-20T23:21:22.644Z,0.10
2023-01-20T23:23:54.531Z,0.20
2023-01-20T23:26:25.159Z,0.20
2023-01-20T23:28:53.776Z,0.10
2023-01-20T23:31:23.293Z,0.00
2023-01-20T23:33:51.154Z,0.00
2023-01-20T23:36:21.062Z,0.00
2023-01-20T23:38:48.296Z,0.10
2023-01-20T23:41:17.234Z,0.00
2023-01-20T23:43:44.806Z,-0.10
2023-01-20T23:46:12.191Z,-0.20
2023-01-20T23:48:40.047Z,-0.30
2023-01-20T23:51:07.937Z,-0.20
2023-01-20T23:53:39.221Z,0.00
2023-01-20T23:56:19.005Z,0.00
2023-01-20T23:58:47.269Z,0.10
